Big Brook, Canada
Current Conditions -  °F | °C
As of 1:00 AM on Thursday 27 Nov 2014 (Local Time) from CYAY Reporting Station
Broken Clouds Broken Clouds  
Wind Chill: 27°   Ceiling: 17000
Heat Index: 27°   Visibility: 9mi
Dew Point: 21°   Wind: 3mph
Humidity: 80%   Direction: 320°NW
Pressure: 30.1"   Gusts: NA
Location:  51.51°N, 56.14°W
Report Text: CYAY 270400Z AUTO 32003KT 9SM BKN170 M03/M06 A3010 RMK SLP195
Loading
Personal Weather Stations






























Interactive Weather Map New forecast layout! Learn more

10-Day Weather Forecast

Advertisements
Track Severe Weather on mobile